< Typhoon 201414 2014 Season Typhoon 201416 >
Typhoon 201415 (KALMAEGI)
General InformationTrack Information on Google MapsDetailed Wind InformationForecast History on Google MapsAccess Analytics MapList of All Images || NewsDisaster Info.WeblogTrackbackTyphoon FrontTwiphoonTyphoon Now!Typhoon ImaginationDisaster Info. XMLResourceGoogle EarthGE AnimationAtom FeedGeoJSON
Detalied Best Track (Time Zone = UTC)
Year Month Day Hour Lat. Long. Pressure (hPa) Wind (kt) Class Image Chart
2014 9 11 18 13.5 134.0 1004 0 2 Image Chart
2014 9 12 00 13.7 132.2 1004 0 2 Image Chart
2014 9 12 06 13.7 131.2 1000 35 3 Image Chart
2014 9 12 12 13.7 130.2 996 40 3 Image Chart
2014 9 12 18 13.7 129.4 990 45 3 Image Chart
2014 9 13 00 14.2 128.8 985 50 4 Image Chart
2014 9 13 06 14.9 127.4 980 55 4 Image Chart
2014 9 13 12 15.4 126.6 975 60 4 Image Chart
2014 9 13 18 15.8 125.7 970 65 5 Image Chart
2014 9 14 00 16.4 124.5 970 65 5 Image Chart
2014 9 14 06 17.0 123.4 970 65 5 Image Chart
2014 9 14 12 17.8 121.7 970 65 5 Image Chart
2014 9 14 18 17.9 119.6 975 60 4 Image Chart
2014 9 15 00 18.0 118.2 970 65 5 Image Chart
2014 9 15 06 18.6 116.3 970 65 5 Image Chart
2014 9 15 12 18.9 114.6 965 70 5 Image Chart
2014 9 15 18 19.0 112.8 965 70 5 Image Chart
2014 9 16 00 19.7 111.2 960 75 5 Image Chart
2014 9 16 06 20.5 109.7 960 75 5 Image Chart
2014 9 16 12 21.1 108.0 970 65 5 Image Chart
2014 9 16 18 21.8 106.4 980 55 4 Image Chart
2014 9 17 00 22.4 104.7 985 50 4 Image Chart
2014 9 17 06 22.9 103.1 994 40 3 Image Chart
2014 9 17 12 22.4 101.8 998 0 2 Image Chart
2014 9 17 18 21.6 100.8 1002 0 2 Image Chart
Japan Meteorological Agency Best Track Data | Correction Date : 2014-10-17
< Typhoon 201414 2014 Season Typhoon 201416 >

Help